Airfield :
LOGIN :

Register | Disclaimer

   EN    FR    IT 

 










Legend :    VFR   Marginal VFR   IFR   Intensive IFR   Very Intensive IFR
Visi :
Ceiling :
>= 8 km
>= 3000ft
5 to 8 km
1000 to 3000 ft
1500m to 5 km
500 to 1000 ft
800 to 1500m
200 to 500 ft
< 800m
< 200 ft
Symbols :   Thunderstorms  Fog  Heavy snow  Heavy precipitations  Wind > 20 kt
SIGMETs :     Misc.  Thunderstorms  Icing  Turbulence  Mountain Waves  Volcanic Ashes






- Airport Elevation : 614 ft
- IATA code : CRL


EBCI - Charleroi

CURRENT METAR :
  • 061720Z AUTO 25016KT 220V280 CAVOK 14/00 Q1002

EXPIRED METARs :
  • 061650Z AUTO 25014KT CAVOK 15/02 Q1002
  • 061620Z AUTO 25016G26KT CAVOK 14/03 Q1002
  • 061550Z AUTO 25017KT 210V280 CAVOK 15/03 Q1002
  • 061520Z AUTO 24016KT CAVOK 15/02 Q1002
  • 061450Z AUTO 25016KT 230V300 CAVOK 16/03 Q1002

TAF TAF EBCI
Valid from the 06 at 18:00 until the 08 at 00:00 UTC


061710Z 0618/0724 24015G25KT 9999 SCT045
BECMG 0619/0621 23012KT
PROB40
TEMPO 0622/0705 24015G25KT 4000 RA SHRA SCT008 BKN012TCU
PROB30
TEMPO 0704/0707 BKN008
BECMG 0710/0712 29008KT



MET'MAP, your aeronautical weather chart ! - Copyright ORBIFLY December 2007 - Disclaimer

ORBIFLY MET'MAP TEAM :

Programming & Development : Alexandra Zaïnal
Concept & original design : Baudouin d'Aumeries
Assistance for programming : Marc-Olivier Méhu
Technical & hardware support : Manuel Goepfert

Contact : metmap@orbifly.com




SOURCES & CREDITS :

   NOAA